ADDS METAR Data INFO
IDs: Format: Raw Decoded Include TAF

Data at: 0349 UTC 18 Oct 2017

KOXR 180251Z 00000KT 9SM CLR 20/15 A2991 RMK AO2 SLP127 T02000150 55003
KOXR 180151Z 29003KT 9SM CLR 19/15 A2990 RMK AO2 SLP125 T01940150
KOXR 180051Z 00000KT 9SM CLR 21/15 A2991 RMK AO2 SLP127 T02110150
KOXR 172351Z 29008KT 9SM CLR 22/15 A2992 RMK AO2 SLP130 T02170150 10256 20217 56015
KOXR 172251Z 27009KT 9SM CLR 23/15 A2993 RMK AO2 SLP133 T02280150
KOXR 172151Z 28012KT 10SM CLR 23/16 A2994 RMK AO2 SLP136 T02330156
KOXR 172051Z 27013KT 10SM CLR 23/16 A2996 RMK AO2 SLP144 T02330156 58014
KOXR 171951Z 25008KT 10SM CLR 23/17 A2998 RMK AO2 SLP152 T02330167
KOXR 171851Z 29013KT 10SM CLR 23/17 A3000 RMK AO2 SLP159 T02280167
KOXR 171751Z 28007KT 10SM CLR 24/15 A3000 RMK AO2 SLP158 T02390150 10256 20139 50001
KOXR 171651Z VRB03KT 10SM CLR 25/M01 A3001 RMK AO2 SLP163 T02501006
KOXR 171551Z 07007KT 10SM FEW120 21/02 A3001 RMK AO2 SLP162 T02110017
KOXR 171451Z 32003KT 7SM CLR 18/16 A3000 RMK AO2 SLP156 T01780161 53011
KOXR 171351Z 30006KT 10SM CLR 15/09 A2999 RMK AO2 SLP153 T01500094
KOXR 171251Z 36004KT 10SM CLR 16/08 A2996 RMK AO2 SLP145 T01610083 $
KOXR 171151Z 31004KT 10SM CLR 16/10 A2996 RMK AO2 SLP145 T01610100 10178 20150 55010 $
KOXR 171051Z 00000KT 10SM CLR 16/09 A2996 RMK AO2 SLP144 T01610089 $
KOXR 170951Z 32003KT 10SM CLR 17/09 A2998 RMK AO2 SLP150 T01670094 $
KOXR 170851Z 29003KT 10SM CLR 17/08 A2999 RMK AO2 SLP156 T01670083 56009 $
KOXR 170751Z 36004KT 10SM CLR 17/08 A3000 RMK AO2 SLP157 T01670083 402940150 $
KOXR 170651Z 31004KT 10SM CLR 16/12 A3001 RMK AO2 SLP162 T01610122 $
KOXR 170551Z 31006KT 10SM CLR 17/11 A3002 RMK AO2 SLP165 T01720111 10239 20156 53005 $
KOXR 170451Z 29003KT 10SM CLR 17/15 A3002 RMK AO2 SLP164 T01720150 $
KOXR 170351Z 29003KT 10SM CLR 19/16 A3001 RMK AO2 SLP160 T01890161 $
KOXR 170251Z 00000KT 10SM CLR 19/15 A3001 RMK AO2 SLP160 T01940150 53006 $
KOXR 170151Z 27004KT 10SM CLR 20/14 A2999 RMK AO2 SLP154 T02000144 $
KOXR 170051Z 27011KT 10SM CLR 22/13 A2998 RMK AO2 SLP153 T02220128 $
KOXR 162351Z 28011KT 10SM CLR 24/12 A2999 RMK AO2 SLP154 T02390122 10283 20239 56008 $
KOXR 162251Z 27010KT 10SM CLR 24/17 A3000 RMK AO2 SLP157 T02390172 $
KOXR 162151Z 27012KT 10SM CLR 26/14 A3000 RMK AO2 SLP159 T02560144 $
KOXR 162051Z 26013KT 10SM CLR 27/07 A3001 RMK AO2 SLP162 T02720067 58017 $
KOXR 161951Z 28012KT 10SM CLR 28/06 A3003 RMK AO2 SLP169 T02780061 $
KOXR 161851Z 29008KT 10SM CLR 27/08 A3005 RMK AO2 SLP174 T02720083 $
KOXR 161751Z 28007KT 10SM CLR 27/10 A3006 RMK AO2 SLP179 T02670100 10294 20156 50002 $
KOXR 161651Z 01005KT 10SM CLR 28/M04 A3007 RMK AO2 SLP182 T02781039 $
KOXR 161551Z 02006KT 10SM CLR 24/M04 A3007 RMK AO2 SLP181 T02391044 $